createdAt,value
2018-09-18T00:00:33.387Z,68.80
2018-09-18T00:03:00.921Z,69.00
2018-09-18T00:05:28.456Z,69.10
2018-09-18T00:07:55.983Z,68.80
2018-09-18T00:10:23.584Z,68.80
2018-09-18T00:12:51.118Z,69.00
2018-09-18T00:15:18.690Z,68.90
2018-09-18T00:17:46.229Z,69.10
2018-09-18T00:20:13.787Z,69.00
2018-09-18T00:22:41.368Z,68.90
2018-09-18T00:25:08.855Z,68.80
2018-09-18T00:27:36.381Z,69.00
2018-09-18T00:30:04.507Z,69.20
2018-09-18T00:32:32.071Z,69.20
2018-09-18T00:34:59.578Z,69.10
2018-09-18T00:37:27.107Z,69.10
2018-09-18T00:39:54.662Z,69.00
2018-09-18T00:42:22.224Z,68.90
2018-09-18T00:44:50.006Z,68.90
2018-09-18T00:47:17.554Z,69.20
2018-09-18T00:49:45.053Z,69.00
2018-09-18T00:52:12.584Z,69.30
2018-09-18T00:54:40.102Z,69.40
2018-09-18T00:57:07.799Z,69.20
2018-09-18T00:59:35.323Z,69.30
2018-09-18T01:02:02.935Z,69.00
2018-09-18T01:04:30.450Z,69.20
2018-09-18T01:06:58.016Z,69.00
2018-09-18T01:09:25.546Z,69.20
2018-09-18T01:11:53.076Z,69.10
2018-09-18T01:14:20.593Z,69.20
2018-09-18T01:16:48.150Z,69.30
2018-09-18T01:19:15.722Z,69.20
2018-09-18T01:21:43.306Z,69.40
2018-09-18T01:24:10.826Z,69.40
2018-09-18T01:26:38.347Z,69.20
2018-09-18T01:29:05.917Z,69.40
2018-09-18T01:31:33.438Z,69.30
2018-09-18T01:34:00.949Z,69.50
2018-09-18T01:36:28.547Z,69.60
2018-09-18T01:38:56.103Z,69.90
2018-09-18T01:41:23.607Z,70.30
2018-09-18T01:43:51.209Z,70.30
2018-09-18T01:46:18.639Z,70.30
2018-09-18T01:48:46.137Z,70.30
2018-09-18T01:51:13.678Z,70.10
2018-09-18T01:53:41.218Z,70.30
2018-09-18T01:56:08.725Z,70.30
2018-09-18T01:58:36.283Z,70.50
2018-09-18T02:01:03.793Z,70.90
2018-09-18T02:03:31.383Z,70.60
2018-09-18T02:05:58.913Z,70.80
2018-09-18T02:08:26.443Z,70.40
2018-09-18T02:10:54.050Z,70.30
2018-09-18T02:13:21.565Z,70.20
2018-09-18T02:15:49.129Z,70.70
2018-09-18T02:18:16.924Z,70.50
2018-09-18T02:20:44.450Z,70.30
2018-09-18T02:23:11.960Z,70.30
2018-09-18T02:25:39.536Z,70.20
2018-09-18T02:28:07.111Z,70.30
2018-09-18T02:30:34.632Z,70.20
2018-09-18T02:33:02.176Z,70.10
2018-09-18T02:35:29.782Z,70.00
2018-09-18T02:37:57.296Z,70.10
2018-09-18T02:40:24.836Z,70.10
2018-09-18T02:42:52.433Z,70.00
2018-09-18T02:45:19.949Z,70.50
2018-09-18T02:47:47.455Z,70.70
2018-09-18T02:50:15.087Z,70.70
2018-09-18T02:52:42.623Z,70.90
2018-09-18T02:55:10.185Z,70.60
2018-09-18T02:57:37.658Z,70.80
2018-09-18T03:00:05.538Z,70.70
2018-09-18T03:02:33.053Z,70.80
2018-09-18T03:05:00.637Z,71.00
2018-09-18T03:07:28.165Z,71.00
2018-09-18T03:09:55.689Z,71.10
2018-09-18T03:12:23.164Z,71.20
2018-09-18T03:14:50.731Z,71.00
2018-09-18T03:17:18.260Z,70.90
2018-09-18T03:19:45.770Z,71.00
2018-09-18T03:22:13.270Z,71.20
2018-09-18T03:24:40.831Z,71.30
2018-09-18T03:27:08.362Z,71.30
2018-09-18T03:29:35.940Z,71.60
2018-09-18T03:32:03.546Z,71.50
2018-09-18T03:34:31.086Z,71.60
2018-09-18T03:36:58.651Z,71.50
2018-09-18T03:39:26.200Z,71.30
2018-09-18T03:41:54.360Z,72.20
2018-09-18T03:44:21.847Z,73.20
2018-09-18T03:46:49.405Z,73.10
2018-09-18T03:49:16.929Z,73.30
2018-09-18T03:51:44.426Z,73.20
2018-09-18T03:54:12.017Z,74.00
2018-09-18T03:56:39.575Z,73.90
2018-09-18T03:59:07.114Z,73.10
2018-09-18T04:01:34.670Z,73.20
2018-09-18T04:04:02.218Z,72.70
2018-09-18T04:06:29.945Z,72.60
2018-09-18T04:08:57.472Z,72.60
2018-09-18T04:11:25.109Z,72.40
2018-09-18T04:13:52.756Z,72.40
2018-09-18T04:16:20.334Z,72.30
2018-09-18T04:18:47.810Z,72.20
2018-09-18T04:21:15.352Z,72.10
2018-09-18T04:23:42.916Z,72.50
2018-09-18T04:26:10.457Z,72.30
2018-09-18T04:28:38.021Z,72.10
2018-09-18T04:31:05.601Z,71.90
2018-09-18T04:33:33.145Z,72.60
2018-09-18T04:36:00.654Z,72.10
2018-09-18T04:38:28.227Z,72.40
2018-09-18T04:40:55.718Z,72.50
2018-09-18T04:43:23.289Z,72.60
2018-09-18T04:45:50.933Z,72.30
2018-09-18T04:48:18.525Z,72.80
2018-09-18T04:50:46.117Z,72.50
2018-09-18T04:53:13.648Z,73.10
2018-09-18T04:55:41.245Z,73.20
2018-09-18T04:58:08.881Z,73.00
2018-09-18T05:00:36.408Z,73.00
2018-09-18T05:03:03.967Z,73.00
2018-09-18T05:05:31.499Z,73.50
2018-09-18T05:07:59.041Z,73.40
2018-09-18T05:10:26.586Z,73.70
2018-09-18T05:12:54.213Z,74.00
2018-09-18T05:15:21.762Z,73.50
2018-09-18T05:17:49.330Z,73.50
2018-09-18T05:20:16.905Z,73.70
2018-09-18T05:22:44.627Z,74.70
2018-09-18T05:25:12.203Z,75.20
2018-09-18T05:27:39.719Z,75.50
2018-09-18T05:30:07.595Z,76.60
2018-09-18T05:32:35.224Z,76.50
2018-09-18T05:35:02.841Z,76.90
2018-09-18T05:37:30.397Z,76.50
2018-09-18T05:39:57.963Z,76.20
2018-09-18T05:42:25.521Z,76.40
2018-09-18T05:44:53.160Z,76.00
2018-09-18T05:47:20.773Z,76.40
2018-09-18T05:49:48.439Z,76.20
2018-09-18T05:52:15.983Z,76.10
2018-09-18T05:54:43.558Z,75.80
2018-09-18T05:57:11.287Z,75.30
2018-09-18T05:59:38.883Z,76.40
2018-09-18T06:02:06.525Z,75.90
2018-09-18T06:04:34.104Z,75.60
2018-09-18T06:07:01.700Z,75.10
2018-09-18T06:09:29.291Z,75.80
2018-09-18T06:11:56.984Z,75.10
2018-09-18T06:14:24.517Z,75.70
2018-09-18T06:16:52.036Z,75.90
2018-09-18T06:19:19.720Z,75.30
2018-09-18T06:21:47.204Z,75.90
2018-09-18T06:24:14.791Z,75.90
2018-09-18T06:26:42.307Z,75.40
2018-09-18T06:29:10.493Z,75.50
2018-09-18T06:31:38.081Z,76.20
2018-09-18T06:34:05.567Z,75.50
2018-09-18T06:36:33.190Z,75.10
2018-09-18T06:39:00.724Z,74.90
2018-09-18T06:41:31.283Z,75.30
2018-09-18T06:43:58.963Z,75.70
2018-09-18T06:46:26.491Z,74.80
2018-09-18T06:48:54.000Z,75.70
2018-09-18T06:51:21.555Z,75.20
2018-09-18T06:53:49.092Z,75.10
2018-09-18T06:56:16.631Z,75.20
2018-09-18T06:58:44.166Z,75.30
2018-09-18T07:01:11.784Z,74.60
2018-09-18T07:03:39.334Z,74.40
2018-09-18T07:06:07.028Z,74.50
2018-09-18T07:08:34.577Z,74.40
2018-09-18T07:11:02.821Z,74.20
2018-09-18T07:13:30.406Z,74.10
2018-09-18T07:15:57.983Z,74.50
2018-09-18T07:18:25.584Z,74.80
2018-09-18T07:20:53.138Z,75.20
2018-09-18T07:23:20.772Z,74.30
2018-09-18T07:25:48.368Z,73.60
2018-09-18T07:28:15.945Z,73.70
2018-09-18T07:30:43.600Z,74.20
2018-09-18T07:33:11.248Z,74.60
2018-09-18T07:35:38.746Z,74.40
2018-09-18T07:38:06.266Z,73.70
2018-09-18T07:40:33.772Z,73.00
2018-09-18T07:43:01.297Z,73.90
2018-09-18T07:45:28.876Z,73.60
2018-09-18T07:47:56.467Z,72.80
2018-09-18T07:50:24.005Z,72.90
2018-09-18T07:52:51.549Z,73.20
2018-09-18T07:55:19.122Z,72.40
2018-09-18T07:57:46.687Z,72.50
2018-09-18T08:00:14.224Z,72.00
2018-09-18T08:02:41.779Z,71.60
2018-09-18T08:05:09.445Z,71.70
2018-09-18T08:07:37.003Z,71.70
2018-09-18T08:10:05.286Z,71.70
2018-09-18T08:12:32.847Z,71.60
2018-09-18T08:15:00.424Z,71.60
2018-09-18T08:17:27.979Z,70.80
2018-09-18T08:19:56.068Z,71.10
2018-09-18T08:22:23.611Z,70.50
2018-09-18T08:24:51.149Z,71.00
2018-09-18T08:27:18.683Z,70.70
2018-09-18T08:29:46.248Z,70.10
2018-09-18T08:32:13.812Z,69.40
2018-09-18T08:34:41.425Z,69.00
2018-09-18T08:37:09.045Z,69.40
2018-09-18T08:39:36.702Z,69.60
2018-09-18T08:42:04.387Z,68.40
2018-09-18T08:44:31.975Z,68.40
2018-09-18T08:46:59.535Z,68.40
2018-09-18T08:49:27.085Z,68.30
2018-09-18T08:51:54.780Z,68.40
2018-09-18T08:54:22.343Z,67.70
2018-09-18T08:56:49.917Z,67.60
2018-09-18T08:59:17.510Z,67.80
2018-09-18T09:01:45.033Z,67.70
2018-09-18T09:04:12.626Z,67.70
2018-09-18T09:06:40.994Z,67.50
2018-09-18T09:09:10.268Z,66.80
2018-09-18T09:11:37.881Z,67.40
2018-09-18T09:14:05.524Z,67.10
2018-09-18T09:16:33.258Z,67.60
2018-09-18T09:19:01.238Z,67.50
2018-09-18T09:21:28.846Z,67.00
2018-09-18T09:23:56.390Z,67.00
2018-09-18T09:26:24.013Z,66.50
2018-09-18T09:28:51.487Z,66.60
2018-09-18T09:31:19.062Z,66.80
2018-09-18T09:33:46.665Z,66.40
2018-09-18T09:36:14.275Z,66.00
2018-09-18T09:38:41.890Z,65.70
2018-09-18T09:41:09.463Z,65.50
2018-09-18T09:43:37.081Z,65.00
2018-09-18T09:46:04.773Z,64.80
2018-09-18T09:48:34.109Z,63.60
2018-09-18T09:51:02.577Z,61.50
2018-09-18T09:53:30.067Z,57.70
2018-09-18T09:55:57.617Z,55.20
2018-09-18T09:58:25.253Z,51.90
2018-09-18T10:00:58.441Z,50.30
2018-09-18T10:03:25.985Z,48.60
2018-09-18T10:05:53.516Z,45.60
2018-09-18T10:08:21.057Z,44.90
2018-09-18T10:10:48.737Z,44.10
2018-09-18T10:13:16.180Z,43.20
2018-09-18T10:15:43.709Z,40.80
2018-09-18T10:18:11.357Z,40.90
2018-09-18T10:20:38.825Z,40.00
2018-09-18T10:23:06.399Z,37.70
2018-09-18T10:25:33.971Z,35.90
2018-09-18T10:28:02.116Z,33.10
2018-09-18T10:30:29.652Z,29.90
2018-09-18T10:32:57.257Z,29.00
2018-09-18T10:35:24.874Z,28.60
2018-09-18T10:37:52.441Z,26.80
2018-09-18T10:40:19.948Z,26.10
2018-09-18T10:42:47.579Z,26.30
2018-09-18T10:45:15.103Z,24.70
2018-09-18T10:47:42.687Z,24.40
2018-09-18T10:50:10.214Z,23.40
2018-09-18T10:52:37.874Z,24.30
2018-09-18T10:55:06.147Z,23.60
2018-09-18T10:57:33.701Z,22.50
2018-09-18T11:00:01.248Z,22.80
2018-09-18T11:02:28.797Z,22.20
2018-09-18T11:04:56.325Z,22.30
2018-09-18T11:07:23.899Z,22.30
2018-09-18T11:09:51.487Z,21.90
2018-09-18T11:12:19.067Z,21.40
2018-09-18T11:14:46.586Z,21.30
2018-09-18T11:17:14.206Z,21.00
2018-09-18T11:19:41.913Z,21.40
2018-09-18T11:22:09.485Z,20.40
2018-09-18T11:24:37.021Z,20.50
2018-09-18T11:27:04.613Z,20.20
2018-09-18T11:29:32.279Z,19.90
2018-09-18T11:31:59.811Z,20.00
2018-09-18T11:34:27.344Z,19.90
2018-09-18T11:36:55.538Z,20.00
2018-09-18T11:39:23.088Z,19.80
2018-09-18T11:41:50.639Z,20.20
2018-09-18T11:44:25.139Z,19.30
2018-09-18T11:46:52.711Z,18.50
2018-09-18T11:49:20.868Z,19.60
2018-09-18T11:51:48.515Z,18.60
2018-09-18T11:54:16.128Z,18.90
2018-09-18T11:56:43.820Z,19.10
2018-09-18T11:59:11.360Z,18.80
2018-09-18T12:01:38.923Z,18.10
2018-09-18T12:04:06.532Z,18.50
2018-09-18T12:06:34.105Z,19.90
2018-09-18T12:09:01.882Z,19.30
2018-09-18T12:11:29.469Z,19.10
2018-09-18T12:13:56.987Z,19.40
2018-09-18T12:16:24.611Z,19.30
2018-09-18T12:18:52.271Z,19.20
2018-09-18T12:21:19.852Z,18.40
2018-09-18T12:23:47.417Z,19.20
2018-09-18T12:26:14.994Z,20.80
2018-09-18T12:28:42.562Z,23.60
2018-09-18T12:31:10.110Z,25.60
2018-09-18T12:33:37.682Z,25.80
2018-09-18T12:36:05.999Z,25.30
2018-09-18T12:38:33.715Z,25.00
2018-09-18T12:41:01.363Z,25.10
2018-09-18T12:43:29.039Z,26.60
2018-09-18T12:45:56.753Z,26.80
2018-09-18T12:48:24.365Z,25.40
2018-09-18T12:50:52.033Z,25.50
2018-09-18T12:53:19.699Z,23.20
2018-09-18T12:55:47.313Z,23.60
2018-09-18T12:58:14.991Z,25.10
2018-09-18T13:00:42.574Z,26.70
2018-09-18T13:03:10.939Z,26.80
2018-09-18T13:05:38.570Z,27.10
2018-09-18T13:08:06.888Z,26.00
2018-09-18T13:10:34.385Z,25.30
2018-09-18T13:13:02.057Z,25.30
2018-09-18T13:15:29.676Z,25.00
2018-09-18T13:17:57.345Z,26.00
2018-09-18T13:20:24.935Z,27.50
2018-09-18T13:22:52.540Z,29.70
2018-09-18T13:25:20.112Z,29.50
2018-09-18T13:27:47.747Z,29.80
2018-09-18T13:30:16.217Z,30.10
2018-09-18T13:32:43.858Z,30.70
2018-09-18T13:35:12.315Z,32.00
2018-09-18T13:37:39.909Z,32.70
2018-09-18T13:40:07.530Z,34.30
2018-09-18T13:42:35.149Z,34.90
2018-09-18T13:45:02.762Z,35.90
2018-09-18T13:47:30.327Z,36.50
2018-09-18T13:49:57.987Z,35.90
2018-09-18T13:52:26.201Z,35.90
2018-09-18T13:54:53.811Z,34.50
2018-09-18T13:57:21.445Z,34.80
2018-09-18T13:59:49.427Z,34.40
2018-09-18T14:02:17.112Z,33.40
2018-09-18T14:04:44.651Z,34.50
2018-09-18T14:07:12.257Z,33.20
2018-09-18T14:09:39.903Z,34.10
2018-09-18T14:12:07.579Z,34.20
2018-09-18T14:14:35.247Z,33.30
2018-09-18T14:17:02.814Z,34.50
2018-09-18T14:19:30.399Z,33.80
2018-09-18T14:21:57.909Z,34.10
2018-09-18T14:24:25.515Z,33.60
2018-09-18T14:26:53.117Z,34.30
2018-09-18T14:29:20.706Z,34.70
2018-09-18T14:31:48.294Z,35.50
2018-09-18T14:34:15.918Z,34.90
2018-09-18T14:36:43.490Z,34.40
2018-09-18T14:39:11.220Z,34.30
2018-09-18T14:41:39.295Z,34.00
2018-09-18T14:44:07.589Z,34.80
2018-09-18T14:46:35.299Z,34.20
2018-09-18T14:49:03.258Z,33.40
2018-09-18T14:51:30.851Z,33.60
2018-09-18T14:53:58.476Z,35.60
2018-09-18T14:56:26.060Z,35.90
2018-09-18T14:58:53.696Z,37.20
2018-09-18T15:01:21.284Z,37.40
2018-09-18T15:03:48.856Z,38.70
2018-09-18T15:06:16.445Z,39.20
2018-09-18T15:08:44.057Z,40.20
2018-09-18T15:11:11.637Z,40.10
2018-09-18T15:13:39.233Z,41.20
2018-09-18T15:16:06.844Z,42.30
2018-09-18T15:18:34.416Z,41.80
2018-09-18T15:21:01.924Z,42.30
2018-09-18T15:23:29.523Z,43.10
2018-09-18T15:25:57.092Z,42.60
2018-09-18T15:28:24.662Z,43.50
2018-09-18T15:30:52.197Z,43.50
2018-09-18T15:33:19.756Z,43.80
2018-09-18T15:35:47.304Z,44.70
2018-09-18T15:38:14.863Z,45.00
2018-09-18T15:40:42.464Z,44.90
2018-09-18T15:43:10.147Z,45.20
2018-09-18T15:45:37.768Z,46.00
2018-09-18T15:48:05.320Z,46.10
2018-09-18T15:50:32.942Z,46.50
2018-09-18T15:53:00.667Z,46.80
2018-09-18T15:55:28.448Z,47.10
2018-09-18T15:57:56.040Z,47.90
2018-09-18T16:00:23.673Z,48.10
2018-09-18T16:02:51.308Z,48.60
2018-09-18T16:05:18.959Z,49.00
2018-09-18T16:07:46.666Z,49.30
2018-09-18T16:10:14.263Z,49.20
2018-09-18T16:12:41.862Z,49.90
2018-09-18T16:15:09.512Z,49.90
2018-09-18T16:17:37.144Z,50.20
2018-09-18T16:20:04.793Z,50.10
2018-09-18T16:22:32.427Z,49.20
2018-09-18T16:25:00.127Z,49.60
2018-09-18T16:27:27.750Z,49.90
2018-09-18T16:29:55.356Z,50.40
2018-09-18T16:32:22.930Z,49.70
2018-09-18T16:34:50.550Z,49.60
2018-09-18T16:37:18.143Z,49.70
2018-09-18T16:39:45.699Z,49.60
2018-09-18T16:42:13.275Z,49.50
2018-09-18T16:44:40.853Z,49.70
2018-09-18T16:47:08.516Z,50.00
2018-09-18T16:49:36.285Z,50.40
2018-09-18T16:52:03.986Z,51.00
2018-09-18T16:54:31.749Z,51.20
2018-09-18T16:56:59.443Z,51.90
2018-09-18T16:59:27.074Z,52.40
2018-09-18T17:01:54.769Z,52.70
2018-09-18T17:04:22.440Z,53.10
2018-09-18T17:06:50.163Z,53.30
2018-09-18T17:09:17.721Z,53.70
2018-09-18T17:11:45.305Z,53.70
2018-09-18T17:14:12.923Z,54.60
2018-09-18T17:16:40.555Z,54.20
2018-09-18T17:19:08.163Z,55.00
2018-09-18T17:21:35.707Z,55.10
2018-09-18T17:24:03.358Z,55.20
2018-09-18T17:26:30.958Z,56.00
2018-09-18T17:28:58.710Z,56.10
2018-09-18T17:31:26.288Z,56.70
2018-09-18T17:33:53.877Z,57.30
2018-09-18T17:36:21.446Z,57.80
2018-09-18T17:38:49.569Z,58.00
2018-09-18T17:41:17.700Z,58.50
2018-09-18T17:43:45.507Z,58.80
2018-09-18T17:46:13.207Z,58.80
2018-09-18T17:48:40.776Z,59.20
2018-09-18T17:51:08.501Z,60.00
2018-09-18T17:53:36.194Z,59.80
2018-09-18T17:56:03.847Z,59.80
2018-09-18T17:58:31.563Z,60.20
2018-09-18T18:00:59.279Z,60.30
2018-09-18T18:03:26.870Z,60.50
2018-09-18T18:05:54.418Z,60.70
2018-09-18T18:08:22.162Z,61.20
2018-09-18T18:10:49.898Z,61.50
2018-09-18T18:13:17.580Z,61.70
2018-09-18T18:15:45.297Z,61.40
2018-09-18T18:18:12.930Z,60.80
2018-09-18T18:20:40.740Z,61.40
2018-09-18T18:23:08.435Z,61.60
2018-09-18T18:25:36.153Z,61.50
2018-09-18T18:28:04.077Z,61.50
2018-09-18T18:30:32.547Z,61.00
2018-09-18T18:33:00.156Z,61.60
2018-09-18T18:35:27.791Z,61.50
2018-09-18T18:37:55.536Z,61.80
2018-09-18T18:40:23.279Z,61.50
2018-09-18T18:42:50.902Z,61.80
2018-09-18T18:45:18.599Z,61.50
2018-09-18T18:47:46.377Z,61.50
2018-09-18T18:50:14.170Z,61.80
2018-09-18T18:52:41.881Z,61.60
2018-09-18T18:55:09.521Z,61.40
2018-09-18T18:57:37.184Z,61.40
2018-09-18T19:00:04.900Z,61.60
2018-09-18T19:02:32.581Z,62.10
2018-09-18T19:05:00.349Z,60.90
2018-09-18T19:10:02.857Z,57.20
2018-09-18T19:12:30.655Z,54.70
2018-09-18T19:14:58.449Z,53.30
2018-09-18T19:17:26.163Z,49.80
2018-09-18T19:19:53.871Z,49.80
2018-09-18T19:22:22.255Z,49.60
2018-09-18T19:24:49.929Z,49.00
2018-09-18T19:27:17.740Z,48.80
2018-09-18T19:29:45.570Z,49.20
2018-09-18T19:32:13.317Z,49.70
2018-09-18T19:34:40.977Z,50.90
2018-09-18T19:37:08.797Z,49.60
2018-09-18T19:39:36.459Z,48.90
2018-09-18T19:42:04.224Z,49.90
2018-09-18T19:44:31.969Z,51.60
2018-09-18T19:46:59.733Z,52.20
2018-09-18T19:49:27.445Z,51.90
2018-09-18T19:51:55.193Z,51.80
2018-09-18T19:54:22.996Z,52.00
2018-09-18T19:56:50.601Z,51.80
2018-09-18T19:59:18.354Z,52.70
2018-09-18T20:01:46.093Z,52.40
2018-09-18T20:04:13.685Z,52.80
2018-09-18T20:06:41.390Z,53.00
2018-09-18T20:09:10.774Z,53.20
2018-09-18T20:11:38.547Z,54.80
2018-09-18T20:14:06.255Z,54.00
2018-09-18T20:16:33.973Z,54.40
2018-09-18T20:19:01.848Z,54.60
2018-09-18T20:21:29.525Z,54.20
2018-09-18T20:23:57.438Z,54.30
2018-09-18T20:26:25.093Z,55.10
2018-09-18T20:28:52.713Z,55.40
2018-09-18T20:31:20.417Z,55.60
2018-09-18T20:33:48.492Z,55.90
2018-09-18T20:36:16.417Z,55.90
2018-09-18T20:38:43.862Z,56.90
2018-09-18T20:41:11.569Z,57.30
2018-09-18T20:43:39.264Z,57.30
2018-09-18T20:46:06.908Z,57.50
2018-09-18T20:48:34.574Z,57.60
2018-09-18T20:51:02.185Z,58.00
2018-09-18T20:53:29.752Z,58.00
2018-09-18T20:55:57.470Z,57.50
2018-09-18T20:58:25.157Z,58.00
2018-09-18T21:00:52.890Z,58.70
2018-09-18T21:03:20.531Z,58.80
2018-09-18T21:05:48.549Z,58.90
2018-09-18T21:08:16.174Z,59.20
2018-09-18T21:10:43.785Z,59.50
2018-09-18T21:13:11.340Z,59.80
2018-09-18T21:15:39.006Z,59.80
2018-09-18T21:18:06.617Z,60.40
2018-09-18T21:20:34.194Z,60.90
2018-09-18T21:23:01.742Z,61.20
2018-09-18T21:25:37.265Z,61.30
2018-09-18T21:28:04.847Z,61.30
2018-09-18T21:30:32.405Z,61.60
2018-09-18T21:33:00.012Z,61.80
2018-09-18T21:35:27.601Z,62.00
2018-09-18T21:37:55.080Z,62.20
2018-09-18T21:40:22.706Z,62.60
2018-09-18T21:42:50.172Z,62.80
2018-09-18T21:45:17.652Z,63.10
2018-09-18T21:47:45.222Z,63.30
2018-09-18T21:50:12.776Z,63.50
2018-09-18T21:52:40.254Z,63.80
2018-09-18T21:55:07.818Z,64.00
2018-09-18T21:57:35.420Z,64.20
2018-09-18T22:00:03.059Z,64.40
2018-09-18T22:02:30.600Z,64.80
2018-09-18T22:04:58.120Z,64.60
2018-09-18T22:07:25.612Z,64.80
2018-09-18T22:09:53.154Z,65.30
2018-09-18T22:12:20.753Z,65.10
2018-09-18T22:14:48.258Z,65.20
2018-09-18T22:17:15.775Z,65.70
2018-09-18T22:19:43.283Z,66.00
2018-09-18T22:22:10.831Z,66.10
2018-09-18T22:24:38.313Z,66.50
2018-09-18T22:27:05.820Z,67.20
2018-09-18T22:29:33.335Z,68.10
2018-09-18T22:32:00.877Z,68.50
2018-09-18T22:34:28.391Z,68.50
2018-09-18T22:36:55.900Z,68.90
2018-09-18T22:39:23.409Z,69.40
2018-09-18T22:41:50.912Z,69.30
2018-09-18T22:44:18.400Z,69.40
2018-09-18T22:46:45.890Z,69.10
2018-09-18T22:49:13.444Z,69.60
2018-09-18T22:51:40.930Z,69.40
2018-09-18T22:54:08.408Z,69.60
2018-09-18T22:56:35.924Z,69.50
2018-09-18T22:59:03.433Z,69.70
2018-09-18T23:01:30.918Z,69.60
2018-09-18T23:03:58.425Z,69.70
2018-09-18T23:06:25.998Z,70.00
2018-09-18T23:08:53.552Z,70.70
2018-09-18T23:11:21.088Z,70.40
2018-09-18T23:13:48.603Z,70.50
2018-09-18T23:16:16.141Z,70.20
2018-09-18T23:18:43.756Z,70.10
2018-09-18T23:21:11.296Z,70.20
2018-09-18T23:23:38.811Z,70.60
2018-09-18T23:26:06.645Z,70.90
2018-09-18T23:28:34.163Z,70.50
2018-09-18T23:31:01.676Z,70.50
2018-09-18T23:33:29.214Z,70.70
2018-09-18T23:35:56.734Z,70.70
2018-09-18T23:38:24.316Z,70.70
2018-09-18T23:40:51.836Z,71.40
2018-09-18T23:43:19.371Z,71.50
2018-09-18T23:45:46.940Z,71.60
2018-09-18T23:48:14.532Z,72.00
2018-09-18T23:50:42.108Z,72.80
2018-09-18T23:53:09.636Z,73.10
2018-09-18T23:55:37.175Z,73.20
2018-09-18T23:58:04.929Z,72.50
